KEAU/EAU METAR and TAF weather

Enter ICAO airport designator
Station Type Date Time Source
KEAU METAR 2018/01/24 06:56 UTC NOAA

KEAU 240656Z AUTO 00000KT 9SM CLR M12/M13 A3019 RMK AO2 SLP241 T11171128


Station Type Date Time Source
KEAU Decoded METAR 2018/01/24 06:56 UTC NOAA

EAU CLAIRE CHIPPEWA VALLEY, WI, United States (KEAU) 44-52N 091-29W
Jan 24, 2018 - 01:56 AM EST / 2018.01.24 0656 UTC
Wind: Calm:0
Visibility: 9 mile(s):0
Sky conditions: clear
Temperature: 10.9 F (-11.7 C)
Dew Point: 9.0 F (-12.8 C)
Relative Humidity: 91%
Pressure (altimeter): 30.19 in. Hg (1022 hPa)
ob: KEAU 240656Z AUTO 00000KT 9SM CLR M12/M13 A3019 RMK AO2 SLP241 T11171128
cycle: 7

Station Type Date Time Source
KEAU TAF 2018/01/24 06:22 UTC NOAA

TAF KEAU 240520Z 2406/2506 30003KT P6SM BKN025
FM241200 VRB03KT P6SM SCT007 OVC017


Example: see airport list